Time;durP1;ratioP1;P1;durP2;ratioP2;P2;SDS_P1;SDS_P2;PMS_P1;PMS_P2;Temp;Humidity;BMP_temperature;BMP_pressure;BME280_temperature;BME280_humidity;BME280_pressure;Samples;Min_cycle;Max_cycle;Signal;HPM_P1;HPM_P2
2022/01/22 00:01:10;;;;;;;8.93;4.68;;;;;;;9.14;55.06;102869.97;5089400;28;20064;-75
2022/01/22 00:03:38;;;;;;;8.38;4.82;;;;;;;9.15;54.86;102871.72;5071587;28;20070;-75
2022/01/22 00:06:05;;;;;;;7.97;4.70;;;;;;;9.17;54.77;102864.44;5088635;28;20113;-75
2022/01/22 00:08:32;;;;;;;7.30;4.47;;;;;;;9.15;54.78;102864.47;5086849;28;20105;-75
2022/01/22 00:10:59;;;;;;;7.80;4.85;;;;;;;9.14;54.67;102857.28;5090018;28;20087;-75
2022/01/22 00:16:11;;;;;;;8.73;4.75;;;;;;;9.11;55.22;102864.63;5081921;28;20118;-75
2022/01/22 00:18:39;;;;;;;9.52;4.68;;;;;;;9.11;55.15;102862.81;5066840;28;20083;-75
2022/01/22 00:21:06;;;;;;;8.40;4.80;;;;;;;9.11;54.76;102864.63;5057433;28;20084;-75
2022/01/22 00:23:33;;;;;;;5.82;4.20;;;;;;;9.10;54.64;102870.97;5089399;28;20177;-75
2022/01/22 00:25:59;;;;;;;10.55;5.50;;;;;;;9.10;54.99;102865.56;5087340;28;20056;-75
2022/01/22 00:28:26;;;;;;;7.53;4.95;;;;;;;9.11;54.84;102865.53;5070989;28;20132;-75
2022/01/22 00:30:53;;;;;;;8.85;4.57;;;;;;;9.08;54.99;102856.56;5063745;28;20451;-75
2022/01/22 00:33:20;;;;;;;9.88;5.13;;;;;;;9.09;54.71;102859.25;5068948;28;20086;-75
2022/01/22 00:35:46;;;;;;;9.13;4.80;;;;;;;9.09;54.99;102866.47;5085490;28;20052;-75
2022/01/22 00:38:14;;;;;;;6.75;4.70;;;;;;;9.09;54.78;102867.38;5092766;28;20094;-75
2022/01/22 00:40:47;;;;;;;9.13;4.75;;;;;;;9.08;55.07;102862.88;5087208;28;20067;-75
2022/01/22 00:43:13;;;;;;;9.07;4.32;;;;;;;9.07;54.99;102863.81;5071366;28;20083;-75
2022/01/22 00:45:40;;;;;;;6.88;4.15;;;;;;;9.10;55.07;102870.97;5073883;28;20093;-75
2022/01/22 00:48:07;;;;;;;8.38;4.82;;;;;;;9.10;54.99;102870.97;5082125;28;20102;-75
2022/01/22 00:50:33;;;;;;;7.93;4.75;;;;;;;9.12;54.86;102875.44;5086483;28;20075;-75
2022/01/22 00:53:00;;;;;;;7.38;4.85;;;;;;;9.11;54.98;102868.22;5088886;28;20127;-75
2022/01/22 00:55:26;;;;;;;8.18;5.35;;;;;;;9.12;54.55;102871.81;5081524;28;20260;-75
2022/01/22 00:57:53;;;;;;;8.63;5.00;;;;;;;9.15;55.06;102874.44;5068944;28;20056;-75
2022/01/22 01:00:20;;;;;;;7.78;5.15;;;;;;;9.12;54.99;102861.88;5085018;28;20464;-75
2022/01/22 01:02:47;;;;;;;9.93;5.07;;;;;;;9.13;55.10;102866.38;5070966;28;20048;-75
2022/01/22 01:05:14;;;;;;;7.75;5.10;;;;;;;9.15;54.90;102869.00;5086704;28;20189;-75
2022/01/22 01:07:41;;;;;;;10.40;5.65;;;;;;;9.17;54.82;102859.03;5070755;28;20449;-75
2022/01/22 01:10:13;;;;;;;8.85;5.70;;;;;;;9.15;54.94;102855.47;5088350;28;20105;-75
2022/01/22 01:12:41;;;;;;;7.40;5.05;;;;;;;9.13;54.93;102857.34;5088495;28;20489;-75
2022/01/22 01:34:21;;;;;;;10.27;6.07;;;;;;;9.08;54.97;102865.59;5088193;28;20456;-75
2022/01/22 01:36:49;;;;;;;8.50;5.88;;;;;;;9.09;55.01;102875.50;5076696;28;20048;-75
2022/01/22 01:39:23;;;;;;;8.30;5.97;;;;;;;9.09;54.91;102870.09;5088048;28;20122;-75
2022/01/22 01:42:09;;;;;;;8.52;5.55;;;;;;;9.10;54.84;102870.97;5086356;28;20467;-75
2022/01/22 01:44:36;;;;;;;9.93;6.40;;;;;;;9.08;54.99;102865.59;5089515;28;20066;-75
2022/01/22 01:47:05;;;;;;;9.52;6.50;;;;;;;9.10;55.14;102865.56;5090932;28;20131;-75
2022/01/22 01:49:32;;;;;;;11.90;6.63;;;;;;;9.09;55.21;102861.06;5090885;28;20502;-75
2022/01/22 01:52:02;;;;;;;7.70;5.82;;;;;;;9.09;54.99;102856.53;5087085;28;20133;-75
2022/01/22 01:54:59;;;;;;;9.55;6.60;;;;;;;9.10;54.98;102857.44;5090603;28;20506;-75
2022/01/22 01:57:38;;;;;;;7.82;5.70;;;;;;;9.08;55.19;102856.56;5085648;28;20075;-75
2022/01/22 02:00:08;;;;;;;9.70;6.85;;;;;;;9.08;55.19;102864.69;5090852;28;20060;-75
2022/01/22 02:02:36;;;;;;;11.43;6.72;;;;;;;9.06;55.19;102851.19;5092751;28;20079;-75
2022/01/22 02:05:03;;;;;;;11.07;7.00;;;;;;;9.07;55.43;102852.97;5090718;28;20102;-75
2022/01/22 02:07:29;;;;;;;10.05;7.05;;;;;;;9.08;55.49;102862.00;5074843;28;20052;-75
2022/01/22 02:09:58;;;;;;;10.13;7.20;;;;;;;9.08;55.20;102862.00;5087991;28;20168;-75
2022/01/22 02:25:57;;;;;;;11.25;8.32;;;;;;;9.06;55.25;102845.78;5088776;28;20479;-75
2022/01/22 02:28:24;;;;;;;10.80;8.07;;;;;;;9.08;55.30;102838.50;5091775;28;20044;-75
2022/01/22 02:30:57;;;;;;;12.32;7.70;;;;;;;9.08;55.27;102843.03;5087390;28;20505;-74
2022/01/22 02:33:40;;;;;;;10.90;8.02;;;;;;;9.07;55.29;102839.44;5091456;28;20079;-74
2022/01/22 02:38:53;;;;;;;13.38;8.52;;;;;;;9.09;55.48;102842.09;5090776;28;20051;-74
2022/01/22 02:41:23;;;;;;;13.48;8.35;;;;;;;9.09;55.70;102836.69;5085897;28;20052;-75
2022/01/22 02:43:52;;;;;;;12.73;8.48;;;;;;;9.10;55.32;102842.06;5097655;28;20514;-75
2022/01/22 02:46:24;;;;;;;12.70;8.73;;;;;;;9.12;55.58;102840.19;5064457;28;20412;-75
2022/01/22 02:48:56;;;;;;;14.57;9.75;;;;;;;9.12;55.51;102837.50;5073192;28;20518;-74
2022/01/22 02:51:23;;;;;;;15.25;9.30;;;;;;;9.11;55.43;102840.25;5087634;28;20128;-74
2022/01/22 02:53:54;;;;;;;16.13;10.38;;;;;;;9.11;55.45;102842.94;5087597;28;20080;-74
2022/01/22 02:56:23;;;;;;;13.95;8.80;;;;;;;9.12;55.38;102844.72;5076263;28;20135;-74
2022/01/22 02:58:50;;;;;;;14.40;9.38;;;;;;;9.13;55.43;102849.22;5080668;28;20499;-74
2022/01/22 03:01:18;;;;;;;16.70;10.50;;;;;;;9.11;55.29;102841.13;5087292;28;20089;-74
2022/01/22 03:03:44;;;;;;;14.23;9.15;;;;;;;9.11;55.43;102840.25;5086920;28;20098;-74
2022/01/22 03:06:11;;;;;;;15.02;10.05;;;;;;;9.13;55.40;102838.38;5089541;28;20530;-74
2022/01/22 03:08:40;;;;;;;16.92;10.18;;;;;;;9.13;55.52;102839.28;5085982;28;20127;-74
2022/01/22 03:11:17;;;;;;;16.23;10.15;;;;;;;9.12;55.35;102837.50;5089125;28;20052;-74
2022/01/22 03:18:58;;;;;;;23.40;11.15;;;;;;;9.12;55.18;102837.50;5089383;28;20402;-74
2022/01/22 03:22:02;;;;;;;14.88;9.75;;;;;;;9.11;55.47;102841.13;5072169;28;20051;-74
2022/01/22 03:27:23;;;;;;;17.38;10.10;;;;;;;9.13;55.43;102841.97;5082713;28;20052;-74
2022/01/22 03:29:51;;;;;;;15.48;10.45;;;;;;;9.15;55.56;102844.63;5072521;28;20048;-74
2022/01/22 03:32:19;;;;;;;16.48;10.13;;;;;;;9.17;55.34;102842.75;5090796;28;20048;-74
2022/01/22 03:35:08;;;;;;;13.75;9.98;;;;;;;9.16;55.27;102844.56;5071129;28;20135;-74
2022/01/22 03:37:37;;;;;;;13.65;9.70;;;;;;;9.15;55.38;102837.38;5079206;28;20048;-74
2022/01/22 03:40:04;;;;;;;15.73;10.43;;;;;;;9.16;55.47;102846.41;5089496;28;20094;-74
2022/01/22 03:42:31;;;;;;;15.82;10.50;;;;;;;9.15;55.55;102836.50;5083821;28;20052;-74
2022/01/22 03:44:57;;;;;;;13.38;9.98;;;;;;;9.15;55.59;102842.81;5084042;28;20060;-74
2022/01/22 03:47:24;;;;;;;14.02;9.82;;;;;;;9.14;55.43;102851.84;5084706;28;20084;-74
2022/01/22 03:49:50;;;;;;;14.48;10.07;;;;;;;9.14;55.29;102843.72;5079563;28;20466;-74
2022/01/22 03:52:17;;;;;;;14.88;9.70;;;;;;;9.15;55.39;102850.94;5070022;28;20062;-75
2022/01/22 03:54:44;;;;;;;15.85;9.63;;;;;;;9.15;55.55;102848.22;5084720;28;20093;-74
2022/01/22 03:57:11;;;;;;;13.80;9.57;;;;;;;9.15;55.57;102841.91;5089461;28;20040;-74
2022/01/22 03:59:37;;;;;;;13.23;9.02;;;;;;;9.17;55.56;102850.88;5087589;28;20086;-74
2022/01/22 04:02:46;;;;;;;16.83;10.23;;;;;;;9.18;55.37;102847.25;5090126;28;20329;-74
2022/01/22 04:05:03;;;;;;;16.30;10.07;;;;;;;9.16;55.70;102860.84;5078244;28;20044;-74
2022/01/22 04:10:03;;;;;;;16.20;10.18;;;;;;;9.19;55.60;102857.16;5089024;28;20101;-74
2022/01/22 04:15:12;;;;;;;15.55;9.60;;;;;;;9.21;55.56;102858.00;5083499;28;20061;-74
2022/01/22 04:26:05;;;;;;;14.55;9.65;;;;;;;9.19;55.58;102848.16;5085171;28;20624;-74
2022/01/22 04:28:32;;;;;;;12.63;9.15;;;;;;;9.19;55.51;102850.84;5083845;28;20514;-74
2022/01/22 04:30:59;;;;;;;15.57;10.38;;;;;;;9.18;55.59;102855.38;5084844;28;20747;-73
2022/01/22 04:33:25;;;;;;;13.38;9.82;;;;;;;9.19;55.81;102854.44;5082087;28;20043;-74
2022/01/22 04:35:52;;;;;;;14.82;9.35;;;;;;;9.19;55.96;102848.16;5085487;28;20086;-74
2022/01/22 04:38:19;;;;;;;14.93;9.65;;;;;;;9.20;55.72;102848.09;5068085;28;20606;-74
2022/01/22 04:40:45;;;;;;;14.77;9.48;;;;;;;9.19;55.79;102848.16;5083577;28;20542;-74
2022/01/22 04:43:12;;;;;;;14.20;9.25;;;;;;;9.20;55.69;102847.22;5063353;28;20044;-74
2022/01/22 04:46:20;;;;;;;12.82;8.68;;;;;;;9.21;55.58;102849.00;5084726;28;20052;-74
2022/01/22 04:56:48;;;;;;;13.20;9.27;;;;;;;9.21;55.68;102849.88;5089314;28;20055;-74
2022/01/22 04:59:14;;;;;;;14.70;9.23;;;;;;;9.22;55.76;102854.38;5069954;28;20056;-74
2022/01/22 05:01:41;;;;;;;12.00;8.70;;;;;;;9.22;55.81;102857.09;5087761;28;20048;-74
2022/01/22 05:04:08;;;;;;;12.98;8.77;;;;;;;9.22;55.89;102850.78;5084411;28;20052;-74
2022/01/22 05:06:34;;;;;;;12.43;8.82;;;;;;;9.23;55.88;102855.22;5088206;28;20091;-74
2022/01/22 05:09:01;;;;;;;15.18;9.68;;;;;;;9.24;55.76;102841.63;5080397;28;20139;-74
2022/01/22 05:11:27;;;;;;;16.13;9.68;;;;;;;9.24;55.97;102844.34;5087255;28;20139;-74
2022/01/22 05:13:54;;;;;;;13.50;8.70;;;;;;;9.26;55.87;102852.44;5077150;28;20144;-74
2022/01/22 05:16:21;;;;;;;13.63;9.02;;;;;;;9.27;55.83;102849.69;5079637;28;20637;-74
2022/01/22 05:18:54;;;;;;;16.52;10.20;;;;;;;9.27;55.90;102846.09;5085408;28;20477;-74
2022/01/22 05:21:22;;;;;;;13.25;8.85;;;;;;;9.26;56.02;102847.03;5089576;28;20071;-74
2022/01/22 05:23:51;;;;;;;13.30;9.70;;;;;;;9.28;55.78;102850.59;5093972;28;20055;-74
2022/01/22 05:26:44;;;;;;;14.90;8.38;;;;;;;9.28;56.08;102847.88;5090885;28;20102;-74
2022/01/22 05:37:06;;;;;;;17.85;9.73;;;;;;;9.29;56.03;102855.06;5084802;28;20078;-75
2022/01/22 05:39:34;;;;;;;14.65;9.70;;;;;;;9.31;55.88;102854.06;5087858;28;20133;-74
2022/01/22 05:42:05;;;;;;;13.52;8.85;;;;;;;9.35;56.16;102853.06;5089107;28;20123;-75
2022/01/22 05:44:32;;;;;;;14.20;8.82;;;;;;;9.33;55.96;102852.22;5085571;28;20481;-75
2022/01/22 05:47:03;;;;;;;13.18;8.68;;;;;;;9.35;55.99;102854.88;5091150;28;20067;-75
2022/01/22 05:49:33;;;;;;;13.88;9.15;;;;;;;9.35;56.05;102863.03;5089907;28;20545;-75
2022/01/22 05:52:03;;;;;;;15.88;9.18;;;;;;;9.34;56.08;102855.81;5091747;28;20048;-75
2022/01/22 05:59:42;;;;;;;11.85;7.90;;;;;;;9.38;55.83;102854.81;5091281;28;20051;-74
2022/01/22 06:02:13;;;;;;;12.70;8.40;;;;;;;9.40;56.36;102856.50;5089787;28;20127;-74
2022/01/22 06:04:41;;;;;;;13.18;8.40;;;;;;;9.40;56.35;102853.81;5072216;28;20052;-75
2022/01/22 06:07:08;;;;;;;12.38;8.43;;;;;;;9.40;56.11;102859.22;5091324;28;20469;-74
2022/01/22 06:09:40;;;;;;;13.10;8.25;;;;;;;9.42;56.04;102872.75;5090756;28;20734;-75
2022/01/22 06:14:35;;;;;;;12.57;8.57;;;;;;;9.41;56.04;102874.56;5084582;28;20714;-75
2022/01/22 06:17:03;;;;;;;13.60;8.65;;;;;;;9.43;56.50;102880.84;5083291;28;20738;-75
2022/01/22 06:19:29;;;;;;;14.50;9.13;;;;;;;9.42;56.27;102880.88;5089067;28;20088;-75
2022/01/22 06:21:56;;;;;;;12.30;8.70;;;;;;;9.43;56.25;102886.25;5083479;28;20086;-75
2022/01/22 06:24:23;;;;;;;15.77;9.05;;;;;;;9.43;56.28;102875.41;5091027;28;20594;-75
2022/01/22 06:26:50;;;;;;;14.73;9.20;;;;;;;9.43;56.64;102885.38;5081755;28;20142;-75
2022/01/22 06:29:17;;;;;;;14.57;9.40;;;;;;;9.46;56.38;102885.28;5091650;28;20520;-74
2022/01/22 06:31:44;;;;;;;13.18;8.45;;;;;;;9.46;56.22;102896.13;5090813;28;20075;-75
2022/01/22 06:34:10;;;;;;;13.27;8.80;;;;;;;9.46;56.53;102885.28;5090823;28;20052;-75
2022/01/22 06:36:37;;;;;;;15.85;9.82;;;;;;;9.47;56.48;102896.06;5087169;28;20086;-74
2022/01/22 06:39:14;;;;;;;12.90;8.63;;;;;;;9.48;56.25;102903.25;5089180;28;20167;-75
2022/01/22 06:41:45;;;;;;;13.32;8.25;;;;;;;9.49;56.34;102899.63;5089068;28;20127;-75
2022/01/22 06:44:13;;;;;;;12.80;8.88;;;;;;;9.52;56.26;102904.06;5089651;28;20044;-74
2022/01/22 06:46:41;;;;;;;14.18;8.82;;;;;;;9.51;56.38;102914.03;5088482;28;20059;-74
2022/01/22 06:49:08;;;;;;;15.70;8.95;;;;;;;9.53;56.26;102908.56;5072639;28;20105;-75
2022/01/22 06:51:34;;;;;;;13.15;8.50;;;;;;;9.53;56.43;102914.88;5084184;28;20168;-75
2022/01/22 06:54:03;;;;;;;16.25;9.95;;;;;;;9.54;56.37;102913.94;5092161;28;20102;-74
2022/01/22 06:56:30;;;;;;;14.77;9.75;;;;;;;9.54;56.06;102913.94;5086459;28;20130;-75
2022/01/22 06:58:58;;;;;;;13.20;8.80;;;;;;;9.55;56.53;102915.69;5073289;28;20048;-75
2022/01/22 07:01:27;;;;;;;15.10;9.07;;;;;;;9.58;56.18;102921.97;5088135;28;20722;-74
2022/01/22 07:03:55;;;;;;;14.40;8.85;;;;;;;9.58;56.25;102914.72;5087453;28;20056;-74
2022/01/22 07:06:23;;;;;;;13.98;8.52;;;;;;;9.57;56.27;102918.38;5085541;28;20040;-75
2022/01/22 07:08:49;;;;;;;14.07;9.18;;;;;;;9.58;56.16;102913.84;5090914;28;20129;-75
2022/01/22 07:11:16;;;;;;;15.50;8.90;;;;;;;9.58;56.06;102916.56;5090910;28;20054;-75
2022/01/22 07:13:43;;;;;;;12.38;8.48;;;;;;;9.59;56.08;102921.03;5090955;28;20483;-75
2022/01/22 07:16:10;;;;;;;13.60;8.43;;;;;;;9.58;56.21;102925.56;5083454;28;20584;-75
2022/01/22 07:18:37;;;;;;;15.30;9.30;;;;;;;9.59;56.23;102926.47;5090429;28;20044;-75
2022/01/22 07:21:17;;;;;;;15.98;8.93;;;;;;;9.60;56.10;102929.13;5074934;28;20047;-75
2022/01/22 07:26:17;;;;;;;13.52;8.68;;;;;;;9.58;56.09;102925.56;5079666;28;20123;-74
2022/01/22 07:28:44;;;;;;;14.18;9.60;;;;;;;9.60;56.32;102936.38;5090862;28;20101;-74
2022/01/22 07:31:11;;;;;;;13.70;8.75;;;;;;;9.60;56.18;102944.53;5088596;28;20206;-75
2022/01/22 07:33:38;;;;;;;13.40;9.23;;;;;;;9.59;56.19;102945.44;5095684;28;20548;-75
2022/01/22 07:36:06;;;;;;;14.90;9.95;;;;;;;9.61;56.19;102954.44;5074749;28;20078;-75
2022/01/22 07:38:38;;;;;;;14.82;9.52;;;;;;;9.58;56.19;102955.41;5090618;28;20060;-75
2022/01/22 07:41:08;;;;;;;14.65;9.82;;;;;;;9.57;56.02;102959.03;5087626;28;20109;-75
2022/01/22 07:43:36;;;;;;;13.82;8.50;;;;;;;9.59;56.42;102956.28;5086609;28;20468;-75
2022/01/22 07:46:06;;;;;;;14.85;9.10;;;;;;;9.60;56.52;102955.38;5085860;28;20060;-75
2022/01/22 07:48:33;;;;;;;13.18;8.55;;;;;;;9.59;56.24;102956.28;5079994;28;20483;-75
2022/01/22 07:51:00;;;;;;;14.25;8.98;;;;;;;9.59;56.43;102948.16;5063033;28;20527;-74
2022/01/22 07:53:26;;;;;;;14.40;8.65;;;;;;;9.58;56.18;102955.41;5078264;28;20113;-74
2022/01/22 07:55:53;;;;;;;13.20;8.52;;;;;;;9.59;56.66;102948.16;5088078;28;20143;-75
2022/01/22 07:58:19;;;;;;;13.48;8.73;;;;;;;9.60;56.51;102948.13;5082432;28;20074;-75
2022/01/22 08:00:46;;;;;;;14.43;9.35;;;;;;;9.60;56.62;102953.56;5088508;28;20083;-74
2022/01/22 08:03:13;;;;;;;16.50;9.63;;;;;;;9.60;56.63;102952.66;5090169;28;20518;-75
2022/01/22 08:05:39;;;;;;;13.80;9.27;;;;;;;9.62;56.53;102953.50;5087653;28;20079;-75
2022/01/22 08:08:06;;;;;;;15.02;10.27;;;;;;;9.63;56.66;102960.72;5071614;28;20044;-75
2022/01/22 08:10:33;;;;;;;14.20;9.35;;;;;;;9.63;56.43;102968.84;5088188;28;20572;-74
2022/01/22 08:12:59;;;;;;;14.38;9.10;;;;;;;9.64;56.35;102962.47;5088281;28;20044;-75
2022/01/22 08:15:26;;;;;;;14.20;9.23;;;;;;;9.65;56.61;102956.09;5087493;28;20052;-74
2022/01/22 08:17:53;;;;;;;17.98;10.82;;;;;;;9.66;56.57;102963.31;5082697;28;20085;-74
2022/01/22 08:20:21;;;;;;;16.77;10.13;;;;;;;9.67;56.76;102955.13;5081626;28;20498;-75
2022/01/22 08:22:48;;;;;;;18.35;11.35;;;;;;;9.69;56.63;102960.53;5068248;28;20044;-75
2022/01/22 08:25:14;;;;;;;17.10;10.65;;;;;;;9.69;56.71;102963.25;5069029;28;20086;-75
2022/01/22 08:28:52;;;;;;;16.95;10.55;;;;;;;9.70;56.60;102955.06;5089151;28;20453;-75
2022/01/22 08:30:31;;;;;;;17.95;10.77;;;;;;;9.71;56.67;102962.28;5082235;28;20391;-75
2022/01/22 08:35:53;;;;;;;20.15;11.23;;;;;;;9.71;56.40;102966.81;5087784;28;20512;-75
2022/01/22 08:38:28;;;;;;;18.63;10.77;;;;;;;9.74;56.63;102956.72;5084642;28;20056;-75
2022/01/22 08:40:55;;;;;;;20.38;12.98;;;;;;;9.74;56.67;102961.25;5066367;28;20548;-75
2022/01/22 08:43:23;;;;;;;17.98;11.52;;;;;;;9.74;56.44;102963.97;5078634;28;20040;-75
2022/01/22 08:45:53;;;;;;;20.15;11.65;;;;;;;9.74;56.82;102962.16;5083636;28;20075;-75
2022/01/22 08:48:21;;;;;;;15.50;10.60;;;;;;;9.77;56.46;102963.91;5076305;28;20044;-75
2022/01/22 08:50:48;;;;;;;20.55;11.82;;;;;;;9.76;56.85;102960.28;5069768;28;20097;-75
2022/01/22 08:53:35;;;;;;;19.60;12.15;;;;;;;9.77;56.62;102964.78;5088700;28;20139;-74
2022/01/22 08:56:02;;;;;;;17.77;11.07;;;;;;;9.80;56.65;102961.97;5084787;28;20051;-75
2022/01/22 08:58:29;;;;;;;19.55;12.02;;;;;;;9.81;56.74;102962.84;5088404;28;20048;-75
2022/01/22 09:00:56;;;;;;;20.65;12.35;;;;;;;9.81;56.72;102974.59;5087418;28;20125;-75
2022/01/22 09:03:23;;;;;;;24.70;14.63;;;;;;;9.82;56.86;102965.53;5086380;28;20394;-74
2022/01/22 09:05:50;;;;;;;25.30;15.30;;;;;;;9.82;56.75;102962.81;5081989;28;20048;-74
2022/01/22 09:08:17;;;;;;;31.63;19.02;;;;;;;9.84;57.03;102966.38;5088107;28;20044;-75
2022/01/22 09:10:44;;;;;;;33.47;18.35;;;;;;;9.84;56.88;102968.19;5087055;28;20047;-76
2022/01/22 09:13:11;;;;;;;30.88;18.02;;;;;;;9.86;56.64;102975.38;5085036;28;20036;-75
2022/01/22 09:15:38;;;;;;;28.25;17.35;;;;;;;9.87;56.86;102976.25;5083830;28;20422;-75
2022/01/22 09:18:06;;;;;;;26.40;16.00;;;;;;;9.87;56.77;102969.00;5080180;28;20052;-74
2022/01/22 09:23:06;;;;;;;25.85;14.18;;;;;;;9.87;56.87;102984.41;5084511;28;20079;-75
2022/01/22 09:25:33;;;;;;;28.30;14.88;;;;;;;9.89;56.67;102982.50;5082113;28;20040;-75
2022/01/22 09:28:00;;;;;;;27.23;15.55;;;;;;;9.91;56.96;102986.97;5086468;28;20093;-76
2022/01/22 09:30:27;;;;;;;26.95;15.80;;;;;;;9.92;56.95;102990.56;5069388;28;20139;-75
2022/01/22 09:32:54;;;;;;;26.70;15.73;;;;;;;9.92;56.45;102983.31;5061405;28;20083;-76
2022/01/22 09:35:20;;;;;;;29.48;16.70;;;;;;;9.93;56.85;102989.63;5086323;28;20055;-76
2022/01/22 09:37:47;;;;;;;28.25;15.43;;;;;;;9.94;56.91;102994.13;5088750;28;20098;-75
2022/01/22 09:40:14;;;;;;;31.90;18.45;;;;;;;9.96;56.89;103002.22;5087849;28;20105;-75
2022/01/22 09:42:41;;;;;;;29.15;17.15;;;;;;;9.98;57.00;102995.78;5087847;28;20139;-76
2022/01/22 09:45:09;;;;;;;33.75;18.55;;;;;;;9.99;56.87;103000.28;5086200;28;20124;-75
2022/01/22 09:47:36;;;;;;;29.40;17.58;;;;;;;10.00;56.86;102999.38;5085053;28;20052;-75
2022/01/22 09:50:04;;;;;;;30.17;17.40;;;;;;;10.01;57.02;103000.25;5078736;28;20450;-75
2022/01/22 09:52:31;;;;;;;29.67;16.83;;;;;;;10.00;56.87;103004.78;5088900;28;20071;-75
2022/01/22 09:54:57;;;;;;;30.33;17.33;;;;;;;10.01;57.20;103005.69;5083988;28;20044;-75
2022/01/22 09:57:26;;;;;;;30.65;17.42;;;;;;;10.01;56.71;102998.44;5086940;28;20044;-76
2022/01/22 09:59:52;;;;;;;27.95;16.30;;;;;;;10.01;56.89;102998.44;5065858;28;20048;-76
2022/01/22 10:02:21;;;;;;;22.70;14.80;;;;;;;10.02;56.71;103002.94;5087308;28;20079;-76
2022/01/22 10:04:49;;;;;;;24.05;14.13;;;;;;;10.01;56.80;103008.41;5088234;28;20082;-77
2022/01/22 10:07:23;;;;;;;23.65;13.70;;;;;;;10.01;57.03;103001.16;5087253;28;20052;-76
2022/01/22 10:10:02;;;;;;;20.52;12.63;;;;;;;10.03;57.22;102998.38;5073613;28;20052;-76
2022/01/22 10:12:31;;;;;;;23.30;13.18;;;;;;;10.02;56.89;103005.63;5092706;28;20465;-75
2022/01/22 10:15:17;;;;;;;21.25;13.85;;;;;;;10.04;57.51;103002.88;5084761;28;20045;-76
2022/01/22 10:17:45;;;;;;;21.75;12.65;;;;;;;10.04;56.95;103002.88;5084047;28;20052;-76
2022/01/22 10:20:20;;;;;;;24.10;13.80;;;;;;;10.07;57.25;103003.66;5091594;28;20055;-75
2022/01/22 10:22:51;;;;;;;25.63;14.25;;;;;;;10.07;57.19;103011.81;5091430;28;20448;-76
2022/01/22 10:25:28;;;;;;;26.45;14.80;;;;;;;10.08;57.25;103007.28;5088641;28;20105;-75
2022/01/22 10:27:56;;;;;;;25.15;14.35;;;;;;;10.07;57.07;103008.19;5067916;28;20052;-76
2022/01/22 10:30:33;;;;;;;26.38;16.08;;;;;;;10.06;57.04;103007.31;5061936;28;20703;-75
2022/01/22 10:33:28;;;;;;;27.30;14.40;;;;;;;10.10;57.64;103017.16;5075039;28;20118;-73
2022/01/22 10:36:09;;;;;;;25.40;14.35;;;;;;;10.10;57.50;102999.97;5083655;28;20503;-76
2022/01/22 10:38:47;;;;;;;24.65;14.73;;;;;;;10.11;57.68;102999.94;5088259;28;20529;-76
2022/01/22 10:41:16;;;;;;;22.15;12.45;;;;;;;10.13;57.39;103010.75;5086367;28;20136;-76
2022/01/22 10:43:54;;;;;;;20.10;12.05;;;;;;;10.17;57.78;103007.91;5092160;28;20332;-76
2022/01/22 10:46:42;;;;;;;22.73;13.20;;;;;;;10.17;57.41;103004.28;5071534;28;20048;-77
2022/01/22 10:49:19;;;;;;;18.13;11.02;;;;;;;10.19;57.42;103005.16;5100840;28;20044;-75
2022/01/22 10:51:53;;;;;;;16.40;10.25;;;;;;;10.20;57.61;103006.94;5073907;28;20090;-76
2022/01/22 10:54:22;;;;;;;16.60;9.43;;;;;;;10.23;57.19;103006.81;5084083;28;20499;-76
2022/01/22 10:56:50;;;;;;;13.05;8.10;;;;;;;10.24;57.08;103014.03;5082426;28;20082;-76
2022/01/22 10:59:19;;;;;;;15.35;8.57;;;;;;;10.26;57.56;103004.03;5059874;28;20187;-76
2022/01/22 11:01:53;;;;;;;12.05;7.65;;;;;;;10.29;57.26;103006.66;5085199;28;20055;-75
2022/01/22 11:04:25;;;;;;;12.18;7.68;;;;;;;10.30;57.27;103001.16;5090580;28;20048;-76
2022/01/22 11:07:00;;;;;;;13.85;7.80;;;;;;;10.32;57.37;103000.22;5069560;28;20048;-76
2022/01/22 11:09:47;;;;;;;11.82;7.18;;;;;;;10.32;57.14;103000.22;5090357;28;20162;-76
2022/01/22 11:12:14;;;;;;;11.35;6.70;;;;;;;10.35;57.20;103006.47;5092871;28;20079;-76
2022/01/22 11:14:43;;;;;;;10.20;6.55;;;;;;;10.40;57.44;103011.72;5090127;28;20063;-76
2022/01/22 11:17:10;;;;;;;11.20;6.68;;;;;;;10.41;57.37;103006.25;5084004;28;20475;-76
2022/01/22 11:19:39;;;;;;;10.82;6.28;;;;;;;10.45;57.55;103007.94;5070264;28;20105;-76
2022/01/22 11:22:12;;;;;;;11.38;6.72;;;;;;;10.48;57.57;103005.13;5088445;28;20052;-76
2022/01/22 11:24:39;;;;;;;;;;;;;;;10.26;57.81;103006.75;5088070;28;20044;-76
2022/01/22 11:27:09;;;;;;;9.45;5.53;;;;;;;10.49;57.12;103012.31;5070542;28;19928;-76
2022/01/22 11:29:46;;;;;;;10.20;5.80;;;;;;;10.51;57.05;103006.84;5081036;28;20567;-76
2022/01/22 11:32:16;;;;;;;10.85;6.40;;;;;;;10.55;57.04;103000.38;5089030;28;20089;-76
2022/01/22 11:34:44;;;;;;;11.35;6.75;;;;;;;10.55;57.09;103001.25;5090191;28;20503;-76
2022/01/22 11:37:20;;;;;;;12.20;6.78;;;;;;;10.60;57.13;102987.53;5085800;28;20529;-76
2022/01/22 11:39:47;;;;;;;10.13;6.30;;;;;;;10.56;57.08;102994.00;5071189;28;20059;-76
2022/01/22 11:42:14;;;;;;;9.52;6.50;;;;;;;10.58;56.98;102993.03;5090478;28;20044;-76
2022/01/22 11:44:49;;;;;;;13.07;7.47;;;;;;;10.60;57.29;102998.41;5071396;28;20048;-75
2022/01/22 11:47:22;;;;;;;13.80;7.65;;;;;;;10.58;56.99;102995.72;5088023;28;20044;-75
2022/01/22 11:50:10;;;;;;;13.00;7.80;;;;;;;10.62;56.98;103004.69;5071974;28;20556;-75
2022/01/22 11:52:39;;;;;;;13.63;7.82;;;;;;;10.60;56.80;103003.84;5089886;28;20095;-75
2022/01/22 11:55:12;;;;;;;13.18;7.43;;;;;;;10.60;57.03;102996.59;5088976;28;20159;-76
2022/01/22 11:57:41;;;;;;;11.25;7.32;;;;;;;10.60;56.97;103003.84;5085893;28;20075;-75
2022/01/22 12:00:19;;;;;;;12.38;7.18;;;;;;;10.61;56.99;102994.75;5071323;28;20060;-75
2022/01/22 12:03:08;;;;;;;12.23;7.63;;;;;;;10.60;56.87;102992.97;5061082;28;20101;-76
2022/01/22 12:05:54;;;;;;;11.57;7.25;;;;;;;10.57;57.01;103009.34;5087484;28;20131;-76
2022/01/22 12:08:22;;;;;;;12.57;7.47;;;;;;;10.59;56.84;102999.34;5089869;28;20542;-76
2022/01/22 12:16:41;;;;;;;11.90;7.20;;;;;;;10.58;57.04;103000.28;5076997;28;20048;-76
2022/01/22 12:19:32;;;;;;;14.38;7.32;;;;;;;10.57;57.28;102990.34;5085210;28;20474;-76
2022/01/22 12:22:00;;;;;;;12.55;7.45;;;;;;;10.56;57.08;102999.44;5090135;28;20101;-75
2022/01/22 12:24:32;;;;;;;12.27;7.47;;;;;;;10.61;57.03;103005.63;5083078;28;20060;-76
2022/01/22 12:27:03;;;;;;;11.98;7.65;;;;;;;10.57;56.99;102998.50;5088319;28;20105;-76
2022/01/22 12:29:34;;;;;;;14.93;8.07;;;;;;;10.61;57.12;102995.66;5084874;28;20113;-76
2022/01/22 12:32:16;;;;;;;12.65;7.15;;;;;;;10.64;57.26;102990.09;5071140;28;20695;-76
2022/01/22 12:34:56;;;;;;;13.90;7.28;;;;;;;10.62;57.08;102989.25;5096699;28;20113;-76
2022/01/22 12:37:24;;;;;;;12.93;6.82;;;;;;;10.62;56.96;102991.09;5085360;28;20078;-76
2022/01/22 12:39:54;;;;;;;12.32;6.72;;;;;;;10.64;57.01;102990.09;5084555;28;20076;-76
2022/01/22 12:42:34;;;;;;;11.23;6.80;;;;;;;10.66;56.91;102988.22;5090067;28;20314;-76
2022/01/22 12:45:06;;;;;;;12.88;7.82;;;;;;;10.67;56.76;102990.00;5084515;28;20040;-76
2022/01/22 12:47:36;;;;;;;10.93;6.85;;;;;;;10.68;56.82;102999.03;5085285;28;20562;-75
2022/01/22 12:50:08;;;;;;;11.27;6.95;;;;;;;10.69;56.60;102992.69;5086621;28;20044;-76
2022/01/22 12:52:35;;;;;;;14.93;7.50;;;;;;;10.66;56.90;102984.63;5071427;28;20044;-76
2022/01/22 12:55:37;;;;;;;11.10;7.45;;;;;;;10.70;56.97;102997.16;5067560;28;20142;-76
2022/01/22 12:58:05;;;;;;;12.13;7.43;;;;;;;10.66;56.83;102996.38;5080994;28;20131;-76
2022/01/22 13:00:31;;;;;;;14.00;7.25;;;;;;;10.68;56.84;102993.59;5086973;28;20068;-76
2022/01/22 13:02:58;;;;;;;13.88;8.13;;;;;;;10.67;57.04;102990.00;5089676;28;20044;-76
2022/01/22 13:05:28;;;;;;;13.70;8.48;;;;;;;10.70;57.07;102993.56;5086864;28;20059;-76
2022/01/22 13:07:59;;;;;;;15.35;9.07;;;;;;;10.69;56.93;102992.69;5068741;28;20114;-76
2022/01/22 13:10:33;;;;;;;14.90;8.73;;;;;;;10.70;57.03;102999.00;5087420;28;20380;-76
2022/01/22 13:13:02;;;;;;;14.35;8.25;;;;;;;10.68;56.90;102999.94;5070959;28;20494;-76